createdAt,value
2022-12-04T00:01:21.244Z,4.87
2022-12-04T00:03:52.662Z,4.78
2022-12-04T00:06:21.514Z,4.72
2022-12-04T00:08:49.569Z,4.72
2022-12-04T00:11:23.351Z,4.67
2022-12-04T00:13:51.371Z,4.59
2022-12-04T00:16:21.438Z,4.52
2022-12-04T00:18:49.712Z,4.42
2022-12-04T00:21:18.538Z,4.51
2022-12-04T00:23:46.673Z,4.47
2022-12-04T00:26:17.425Z,4.42
2022-12-04T00:28:45.197Z,4.38
2022-12-04T00:31:19.895Z,4.35
2022-12-04T00:33:47.704Z,4.31
2022-12-04T00:36:17.897Z,4.26
2022-12-04T00:38:45.763Z,4.22
2022-12-04T00:41:16.560Z,4.23
2022-12-04T00:43:45.706Z,4.28
2022-12-04T00:46:13.335Z,4.34
2022-12-04T00:48:41.604Z,4.26
2022-12-04T00:51:14.870Z,4.16
2022-12-04T00:53:42.537Z,4.17
2022-12-04T00:56:13.646Z,4.17
2022-12-04T00:58:41.948Z,4.13
2022-12-04T01:01:13.377Z,4.07
2022-12-04T01:03:42.148Z,4.04
2022-12-04T01:06:18.785Z,3.78
2022-12-04T01:08:47.244Z,3.57
2022-12-04T01:11:15.254Z,4.09
2022-12-04T01:13:42.872Z,4.15
2022-12-04T01:16:20.943Z,4.23
2022-12-04T01:18:49.226Z,4.32
2022-12-04T01:21:17.694Z,4.32
2022-12-04T01:23:45.815Z,4.36
2022-12-04T01:26:13.848Z,4.52
2022-12-04T01:28:41.882Z,4.67
2022-12-04T01:31:13.419Z,4.65
2022-12-04T01:33:42.343Z,4.68
2022-12-04T01:36:15.673Z,4.76
2022-12-04T01:38:43.755Z,4.80
2022-12-04T01:41:13.812Z,4.91
2022-12-04T01:43:41.656Z,4.88
2022-12-04T01:46:10.626Z,4.97
2022-12-04T01:48:50.632Z,4.97
2022-12-04T01:51:26.627Z,5.04
2022-12-04T01:54:00.769Z,4.46
2022-12-04T01:56:36.813Z,4.85
2022-12-04T01:59:06.231Z,4.48
2022-12-04T02:01:40.498Z,4.28
2022-12-04T02:04:08.573Z,4.49
2022-12-04T02:06:35.960Z,4.39
2022-12-04T02:09:03.905Z,4.41
2022-12-04T02:11:42.903Z,4.40
2022-12-04T02:14:25.423Z,4.36
2022-12-04T02:16:55.582Z,4.27
2022-12-04T02:19:44.502Z,4.17
2022-12-04T02:22:30.405Z,4.00
2022-12-04T02:25:20.667Z,3.97
2022-12-04T02:28:00.805Z,3.92
2022-12-04T02:30:30.941Z,3.87
2022-12-04T02:33:07.883Z,3.78
2022-12-04T02:36:08.091Z,4.05
2022-12-04T02:38:52.066Z,4.05
2022-12-04T02:41:34.996Z,4.35
2022-12-04T02:44:09.309Z,4.51
2022-12-04T02:46:45.725Z,4.47
2022-12-04T02:49:36.548Z,4.33
2022-12-04T02:52:08.425Z,4.05
2022-12-04T02:54:41.769Z,3.93
2022-12-04T02:57:16.874Z,3.85
2022-12-04T02:59:47.774Z,3.70
2022-12-04T03:02:33.349Z,3.87
2022-12-04T03:05:05.240Z,3.84
2022-12-04T03:07:42.918Z,3.72
2022-12-04T03:10:16.732Z,3.61
2022-12-04T03:13:03.400Z,3.69
2022-12-04T03:15:36.048Z,3.66
2022-12-04T03:18:10.178Z,3.66
2022-12-04T03:20:39.144Z,3.69
2022-12-04T03:23:31.176Z,3.81
2022-12-04T03:26:04.656Z,3.84
2022-12-04T03:28:44.193Z,3.87
2022-12-04T03:31:13.320Z,3.86
2022-12-04T03:33:46.278Z,4.03
2022-12-04T03:36:19.967Z,4.10
2022-12-04T03:39:08.221Z,3.90
2022-12-04T03:42:01.552Z,3.79
2022-12-04T03:44:48.607Z,4.15
2022-12-04T03:47:55.337Z,4.22
2022-12-04T03:50:39.738Z,4.13
2022-12-04T03:53:19.157Z,4.06
2022-12-04T03:56:02.014Z,3.83
2022-12-04T03:58:33.073Z,3.92
2022-12-04T04:01:04.130Z,3.91
2022-12-04T04:03:39.999Z,4.08
2022-12-04T04:06:15.873Z,4.06
2022-12-04T04:08:46.967Z,3.91
2022-12-04T04:11:26.674Z,3.66
2022-12-04T04:14:23.921Z,3.66
2022-12-04T04:17:21.334Z,3.75
2022-12-04T04:20:28.957Z,3.73
2022-12-04T04:23:18.811Z,3.71
2022-12-04T04:25:47.638Z,3.65
2022-12-04T04:28:33.872Z,3.54
2022-12-04T04:31:13.626Z,3.61
2022-12-04T04:33:56.588Z,3.57
2022-12-04T04:36:43.717Z,3.36
2022-12-04T04:39:37.483Z,3.52
2022-12-04T04:42:24.932Z,3.50
2022-12-04T04:45:07.608Z,3.48
2022-12-04T04:47:47.182Z,3.52
2022-12-04T04:50:17.127Z,3.55
2022-12-04T04:52:49.917Z,3.59
2022-12-04T04:55:19.838Z,3.54
2022-12-04T04:57:47.524Z,3.67
2022-12-04T05:00:24.131Z,3.71
2022-12-04T05:02:51.705Z,3.52
2022-12-04T05:05:19.316Z,3.67
2022-12-04T05:07:47.044Z,3.65
2022-12-04T05:10:14.631Z,3.57
2022-12-04T05:12:42.109Z,3.65
2022-12-04T05:15:10.042Z,3.57
2022-12-04T05:17:37.696Z,3.54
2022-12-04T05:20:06.819Z,3.56
2022-12-04T05:22:36.771Z,3.58
2022-12-04T05:25:04.734Z,3.73
2022-12-04T05:27:32.586Z,3.77
2022-12-04T05:30:00.296Z,3.72
2022-12-04T05:32:29.771Z,3.83
2022-12-04T05:34:58.409Z,3.84
2022-12-04T05:37:26.276Z,3.78
2022-12-04T05:39:54.300Z,3.74
2022-12-04T05:42:22.255Z,3.81
2022-12-04T05:44:50.311Z,3.77
2022-12-04T05:47:17.970Z,3.78
2022-12-04T05:49:45.433Z,3.75
2022-12-04T05:52:14.320Z,3.72
2022-12-04T05:54:42.225Z,3.74
2022-12-04T05:57:09.716Z,3.61
2022-12-04T05:59:37.408Z,3.59
2022-12-04T06:02:04.866Z,3.66
2022-12-04T06:04:33.659Z,3.73
2022-12-04T06:07:01.081Z,3.65
2022-12-04T06:09:28.588Z,3.78
2022-12-04T06:11:58.746Z,3.86
2022-12-04T06:14:26.559Z,3.82
2022-12-04T06:16:54.382Z,3.90
2022-12-04T06:19:24.099Z,3.84
2022-12-04T06:21:53.254Z,3.94
2022-12-04T06:24:24.066Z,3.94
2022-12-04T06:27:27.211Z,3.92
2022-12-04T06:29:44.568Z,3.96
2022-12-04T06:32:15.244Z,4.03
2022-12-04T06:34:51.488Z,4.05
2022-12-04T06:37:19.835Z,4.18
2022-12-04T06:39:47.388Z,4.21
2022-12-04T06:42:15.883Z,4.29
2022-12-04T06:44:43.325Z,5.39
2022-12-04T06:47:10.898Z,6.60
2022-12-04T06:49:38.644Z,7.16
2022-12-04T06:52:06.124Z,6.76
2022-12-04T06:54:33.619Z,7.02
2022-12-04T06:57:01.273Z,8.13
2022-12-04T06:59:28.865Z,8.93
2022-12-04T07:01:56.695Z,9.35
2022-12-04T07:04:24.743Z,9.34
2022-12-04T07:06:52.191Z,7.25
2022-12-04T07:09:20.022Z,6.05
2022-12-04T07:11:47.473Z,5.72
2022-12-04T07:14:15.129Z,5.27
2022-12-04T07:16:43.156Z,5.19
2022-12-04T07:19:13.343Z,5.11
2022-12-04T07:21:42.146Z,5.26
2022-12-04T07:24:15.219Z,6.99
2022-12-04T07:26:43.118Z,6.42
2022-12-04T07:29:10.971Z,5.77
2022-12-04T07:31:39.049Z,5.51
2022-12-04T07:34:06.556Z,6.12
2022-12-04T07:36:34.107Z,8.32
2022-12-04T07:39:01.973Z,10.45
2022-12-04T07:41:29.527Z,12.21
2022-12-04T07:43:57.053Z,12.48
2022-12-04T07:46:26.989Z,12.72
2022-12-04T07:48:56.710Z,13.31
2022-12-04T07:51:27.396Z,13.48
2022-12-04T07:54:02.742Z,13.40
2022-12-04T07:56:32.789Z,14.94
2022-12-04T07:59:00.955Z,13.69
2022-12-04T08:01:29.053Z,13.71
2022-12-04T08:03:58.419Z,13.29
2022-12-04T08:06:29.684Z,10.56
2022-12-04T08:09:02.478Z,9.53
2022-12-04T08:11:34.256Z,9.78
2022-12-04T08:14:03.876Z,9.58
2022-12-04T08:16:33.089Z,9.27
2022-12-04T08:19:01.183Z,11.34
2022-12-04T08:21:31.156Z,11.21
2022-12-04T08:24:00.177Z,10.88
2022-12-04T08:26:29.716Z,11.37
2022-12-04T08:28:57.772Z,11.18
2022-12-04T08:31:27.581Z,11.85
2022-12-04T08:33:58.237Z,12.08
2022-12-04T08:36:26.922Z,11.82
2022-12-04T08:38:54.741Z,10.88
2022-12-04T08:41:24.578Z,11.44
2022-12-04T08:43:57.926Z,11.65
2022-12-04T08:46:27.447Z,11.23
2022-12-04T08:48:55.857Z,11.23
2022-12-04T08:51:26.506Z,11.34
2022-12-04T08:54:06.931Z,11.55
2022-12-04T08:56:37.551Z,10.98
2022-12-04T08:59:06.879Z,11.97
2022-12-04T09:01:34.611Z,11.83
2022-12-04T09:04:02.793Z,10.98
2022-12-04T09:06:30.831Z,10.55
2022-12-04T09:08:59.166Z,11.52
2022-12-04T09:11:28.312Z,11.83
2022-12-04T09:13:56.444Z,12.11
2022-12-04T09:16:25.942Z,12.60
2022-12-04T09:18:54.770Z,13.48
2022-12-04T09:21:24.509Z,13.74
2022-12-04T09:23:52.209Z,12.69
2022-12-04T09:26:25.389Z,13.03
2022-12-04T09:28:54.807Z,12.64
2022-12-04T09:31:23.897Z,11.57
2022-12-04T09:33:52.206Z,11.82
2022-12-04T09:36:20.557Z,11.92
2022-12-04T09:38:51.759Z,12.01
2022-12-04T09:41:47.213Z,11.29
2022-12-04T09:44:32.670Z,12.21
2022-12-04T09:47:10.498Z,13.57
2022-12-04T09:49:45.085Z,14.10
2022-12-04T09:52:35.401Z,15.52
2022-12-04T09:55:06.507Z,15.51
2022-12-04T09:57:43.352Z,15.54
2022-12-04T10:00:17.318Z,17.91
2022-12-04T10:02:50.252Z,18.43
2022-12-04T10:05:37.970Z,18.28
2022-12-04T10:08:10.375Z,16.95
2022-12-04T10:10:41.447Z,16.67
2022-12-04T10:13:56.661Z,16.68
2022-12-04T10:16:51.775Z,17.91
2022-12-04T10:19:28.837Z,17.54
2022-12-04T10:22:43.626Z,17.43
2022-12-04T10:25:22.334Z,17.49
2022-12-04T10:27:58.381Z,16.91
2022-12-04T10:30:27.251Z,16.12
2022-12-04T10:33:07.382Z,17.78
2022-12-04T10:35:37.738Z,14.89
2022-12-04T10:38:23.525Z,16.69
2022-12-04T10:40:57.779Z,14.60
2022-12-04T10:43:48.888Z,17.69
2022-12-04T10:46:26.715Z,19.38
2022-12-04T10:49:06.728Z,16.86
2022-12-04T10:51:40.765Z,16.45
2022-12-04T10:54:37.532Z,15.07
2022-12-04T10:57:07.834Z,16.21
2022-12-04T10:59:35.460Z,16.07
2022-12-04T11:02:19.391Z,14.80
2022-12-04T11:04:57.189Z,14.43
2022-12-04T11:07:28.225Z,16.26
2022-12-04T11:10:39.434Z,15.84
2022-12-04T11:13:12.580Z,16.64
2022-12-04T11:15:51.666Z,18.42
2022-12-04T11:18:29.135Z,17.76
2022-12-04T11:21:00.659Z,17.14
2022-12-04T11:23:33.708Z,17.67
2022-12-04T11:26:05.838Z,18.13
2022-12-04T11:28:42.963Z,17.59
2022-12-04T11:31:18.375Z,16.99
2022-12-04T11:33:52.327Z,16.55
2022-12-04T11:36:24.956Z,16.54
2022-12-04T11:39:03.027Z,15.18
2022-12-04T11:41:37.979Z,16.60
2022-12-04T11:44:07.645Z,16.27
2022-12-04T11:46:35.393Z,16.11
2022-12-04T11:49:05.951Z,13.27
2022-12-04T11:51:49.170Z,14.02
2022-12-04T11:54:32.125Z,14.90
2022-12-04T11:57:11.975Z,14.59
2022-12-04T12:00:03.949Z,14.61
2022-12-04T12:02:46.111Z,15.13
2022-12-04T12:05:31.992Z,13.81
2022-12-04T12:08:11.457Z,14.22
2022-12-04T12:10:57.658Z,13.70
2022-12-04T12:13:37.247Z,14.08
2022-12-04T12:16:16.931Z,13.23
2022-12-04T12:19:13.523Z,13.34
2022-12-04T12:21:46.965Z,13.18
2022-12-04T12:24:23.191Z,13.78
2022-12-04T12:27:28.534Z,12.31
2022-12-04T12:29:56.401Z,11.86
2022-12-04T12:32:24.207Z,12.18
2022-12-04T12:34:52.201Z,11.49
2022-12-04T12:37:35.963Z,11.23
2022-12-04T12:40:14.671Z,11.82
2022-12-04T12:42:58.250Z,11.96
2022-12-04T12:45:41.880Z,12.13
2022-12-04T12:48:23.167Z,10.11
2022-12-04T12:51:30.893Z,11.40
2022-12-04T12:54:22.714Z,11.34
2022-12-04T12:56:55.557Z,10.91
2022-12-04T12:59:27.459Z,11.88
2022-12-04T13:02:02.313Z,11.38
2022-12-04T13:04:54.350Z,11.65
2022-12-04T13:07:47.938Z,10.38
2022-12-04T13:10:22.273Z,9.57
2022-12-04T13:12:56.970Z,9.54
2022-12-04T13:15:31.102Z,9.94
2022-12-04T13:17:59.463Z,9.54
2022-12-04T13:20:34.024Z,9.47
2022-12-04T13:23:16.698Z,9.11
2022-12-04T13:25:47.069Z,8.91
2022-12-04T13:28:23.661Z,8.49
2022-12-04T13:30:56.869Z,8.54
2022-12-04T13:33:24.419Z,8.36
2022-12-04T13:36:53.631Z,8.39
2022-12-04T13:40:03.717Z,8.41
2022-12-04T13:42:32.163Z,8.24
2022-12-04T13:45:06.383Z,8.23
2022-12-04T13:47:35.606Z,8.17
2022-12-04T13:50:20.282Z,7.91
2022-12-04T13:52:49.374Z,8.17
2022-12-04T13:55:28.160Z,7.84
2022-12-04T13:57:59.402Z,7.84
2022-12-04T14:00:35.306Z,7.88
2022-12-04T14:03:25.975Z,7.96
2022-12-04T14:05:54.163Z,7.93
2022-12-04T14:08:29.216Z,7.82
2022-12-04T14:11:05.901Z,7.47
2022-12-04T14:13:44.612Z,7.69
2022-12-04T14:16:38.549Z,7.74
2022-12-04T14:19:07.476Z,7.52
2022-12-04T14:21:43.531Z,7.69
2022-12-04T14:24:30.533Z,7.82
2022-12-04T14:27:13.813Z,7.70
2022-12-04T14:29:49.534Z,7.72
2022-12-04T14:32:23.395Z,7.56
2022-12-04T14:34:51.097Z,7.66
2022-12-04T14:37:30.682Z,7.69
2022-12-04T14:40:01.760Z,7.66
2022-12-04T14:42:40.390Z,7.69
2022-12-04T14:45:27.891Z,7.80
2022-12-04T14:48:30.898Z,7.79
2022-12-04T14:51:16.892Z,7.73
2022-12-04T14:54:15.077Z,7.45
2022-12-04T14:57:17.254Z,7.65
2022-12-04T14:59:48.618Z,7.62
2022-12-04T15:02:19.899Z,7.58
2022-12-04T15:04:50.451Z,7.59
2022-12-04T15:07:19.633Z,7.48
2022-12-04T15:10:18.054Z,7.46
2022-12-04T15:12:50.693Z,7.71
2022-12-04T15:15:27.468Z,7.51
2022-12-04T15:18:13.261Z,7.44
2022-12-04T15:20:50.032Z,7.35
2022-12-04T15:23:44.055Z,7.57
2022-12-04T15:26:19.006Z,7.59
2022-12-04T15:28:57.175Z,7.45
2022-12-04T15:31:33.857Z,7.50
2022-12-04T15:34:06.521Z,7.59
2022-12-04T15:36:48.075Z,7.43
2022-12-04T15:39:20.369Z,7.37
2022-12-04T15:41:48.224Z,7.33
2022-12-04T15:44:27.930Z,7.37
2022-12-04T15:46:59.009Z,7.45
2022-12-04T15:49:32.624Z,7.38
2022-12-04T15:52:15.708Z,7.45
2022-12-04T15:55:05.689Z,7.33
2022-12-04T15:57:37.849Z,7.33
2022-12-04T16:00:08.524Z,7.41
2022-12-04T16:02:41.490Z,7.30
2022-12-04T16:05:21.181Z,7.34
2022-12-04T16:08:00.816Z,7.16
2022-12-04T16:10:31.892Z,7.35
2022-12-04T16:13:02.421Z,7.30
2022-12-04T16:15:41.205Z,7.56
2022-12-04T16:18:13.303Z,7.51
2022-12-04T16:20:41.507Z,7.46
2022-12-04T16:23:09.621Z,7.54
2022-12-04T16:25:37.515Z,7.52
2022-12-04T16:28:05.956Z,7.47
2022-12-04T16:30:35.745Z,7.35
2022-12-04T16:33:03.672Z,7.52
2022-12-04T16:35:31.616Z,7.50
2022-12-04T16:38:00.431Z,7.54
2022-12-04T16:40:28.053Z,7.40
2022-12-04T16:42:55.837Z,7.54
2022-12-04T16:45:32.125Z,7.63
2022-12-04T16:48:00.158Z,7.40
2022-12-04T16:50:28.031Z,7.50
2022-12-04T16:52:55.776Z,7.46
2022-12-04T16:55:31.154Z,7.42
2022-12-04T16:57:59.316Z,7.44
2022-12-04T17:00:27.166Z,7.51
2022-12-04T17:02:55.204Z,7.36
2022-12-04T17:05:27.688Z,7.39
2022-12-04T17:08:03.149Z,7.52
2022-12-04T17:10:30.926Z,7.43
2022-12-04T17:12:58.408Z,7.22
2022-12-04T17:15:26.503Z,7.02
2022-12-04T17:17:54.244Z,6.84
2022-12-04T17:20:22.329Z,8.01
2022-12-04T17:22:50.113Z,8.29
2022-12-04T17:25:19.485Z,8.07
2022-12-04T17:27:56.742Z,7.20
2022-12-04T17:30:25.148Z,7.18
2022-12-04T17:32:53.073Z,7.27
2022-12-04T17:35:20.947Z,7.02
2022-12-04T17:37:48.704Z,7.07
2022-12-04T17:40:16.453Z,7.13
2022-12-04T17:42:44.191Z,6.99
2022-12-04T17:45:12.138Z,7.07
2022-12-04T17:47:39.961Z,7.15
2022-12-04T17:50:07.982Z,7.19
2022-12-04T17:52:35.652Z,7.14
2022-12-04T17:55:03.589Z,7.43
2022-12-04T17:57:31.708Z,7.45
2022-12-04T18:00:00.250Z,7.04
2022-12-04T18:02:28.095Z,7.11
2022-12-04T18:04:56.404Z,7.11
2022-12-04T18:07:24.287Z,7.27
2022-12-04T18:09:52.022Z,7.19
2022-12-04T18:12:19.683Z,7.47
2022-12-04T18:14:47.603Z,7.53
2022-12-04T18:17:17.522Z,8.75
2022-12-04T18:19:45.297Z,8.93
2022-12-04T18:22:13.163Z,9.03
2022-12-04T18:24:40.907Z,7.42
2022-12-04T18:27:08.896Z,7.14
2022-12-04T18:29:36.723Z,7.12
2022-12-04T18:32:04.650Z,6.96
2022-12-04T18:34:32.472Z,7.34
2022-12-04T18:37:00.166Z,7.35
2022-12-04T18:39:27.733Z,8.18
2022-12-04T18:41:56.865Z,8.57
2022-12-04T18:44:24.944Z,7.98
2022-12-04T18:46:53.524Z,8.18
2022-12-04T18:49:21.322Z,8.18
2022-12-04T18:51:50.234Z,7.82
2022-12-04T18:54:23.623Z,7.76
2022-12-04T18:56:51.968Z,7.73
2022-12-04T18:59:26.149Z,7.77
2022-12-04T19:01:54.945Z,7.41
2022-12-04T19:04:24.572Z,6.64
2022-12-04T19:06:55.916Z,6.80
2022-12-04T19:12:15.881Z,7.78
2022-12-04T19:14:43.609Z,6.72
2022-12-04T19:17:11.768Z,6.64
2022-12-04T19:19:39.486Z,6.50
2022-12-04T19:22:07.279Z,6.46
2022-12-04T19:24:34.733Z,6.53
2022-12-04T19:27:10.030Z,6.38
2022-12-04T19:29:43.110Z,6.40
2022-12-04T19:32:11.744Z,6.19
2022-12-04T19:34:40.925Z,6.52
2022-12-04T19:37:08.809Z,6.42
2022-12-04T19:39:36.932Z,6.09
2022-12-04T19:42:04.662Z,8.06
2022-12-04T19:44:49.426Z,7.48
2022-12-04T19:47:19.035Z,7.28
2022-12-04T19:49:48.262Z,6.22
2022-12-04T19:52:16.726Z,6.37
2022-12-04T19:54:44.601Z,6.55
2022-12-04T19:57:14.602Z,6.73
2022-12-04T19:59:46.222Z,6.52
2022-12-04T20:02:28.303Z,6.50
2022-12-04T20:04:56.265Z,7.25
2022-12-04T20:07:24.125Z,7.14
2022-12-04T20:09:54.310Z,7.34
2022-12-04T20:12:21.829Z,7.52
2022-12-04T20:14:49.623Z,6.56
2022-12-04T20:17:17.505Z,6.79
2022-12-04T20:19:45.430Z,6.16
2022-12-04T20:22:13.246Z,6.72
2022-12-04T20:24:41.038Z,7.22
2022-12-04T20:27:08.893Z,7.10
2022-12-04T20:29:36.873Z,7.19
2022-12-04T20:32:04.742Z,7.48
2022-12-04T20:34:32.595Z,7.25
2022-12-04T20:37:00.480Z,7.28
2022-12-04T20:39:29.710Z,7.36
2022-12-04T20:41:57.416Z,7.32
2022-12-04T20:44:25.209Z,6.77
2022-12-04T20:46:53.402Z,7.62
2022-12-04T20:49:22.492Z,6.99
2022-12-04T20:51:51.882Z,7.18
2022-12-04T20:54:21.755Z,7.45
2022-12-04T20:56:52.077Z,7.40
2022-12-04T20:59:21.602Z,6.88
2022-12-04T21:01:51.439Z,7.09
2022-12-04T21:04:19.537Z,7.26
2022-12-04T21:06:47.262Z,6.85
2022-12-04T21:09:20.861Z,7.37
2022-12-04T21:11:58.949Z,6.92
2022-12-04T21:14:48.501Z,7.04
2022-12-04T21:17:19.313Z,7.55
2022-12-04T21:19:49.596Z,7.31
2022-12-04T21:22:18.499Z,7.48
2022-12-04T21:24:45.962Z,7.08
2022-12-04T21:27:20.455Z,7.35
2022-12-04T21:29:49.832Z,6.92
2022-12-04T21:32:18.961Z,7.08
2022-12-04T21:34:46.536Z,7.00
2022-12-04T21:37:14.375Z,6.99
2022-12-04T21:39:42.843Z,6.88
2022-12-04T21:42:28.939Z,7.02
2022-12-04T21:44:57.959Z,6.88
2022-12-04T21:47:25.867Z,7.38
2022-12-04T21:49:54.518Z,7.06
2022-12-04T21:52:22.365Z,7.04
2022-12-04T21:54:54.307Z,7.32
2022-12-04T21:57:22.377Z,7.09
2022-12-04T21:59:53.266Z,7.00
2022-12-04T22:02:21.184Z,6.58
2022-12-04T22:04:48.791Z,6.65
2022-12-04T22:07:16.323Z,6.88
2022-12-04T22:09:43.988Z,6.45
2022-12-04T22:12:33.107Z,6.52
2022-12-04T22:14:58.978Z,7.03
2022-12-04T22:17:29.644Z,6.97
2022-12-04T22:19:57.429Z,6.93
2022-12-04T22:22:25.156Z,6.93
2022-12-04T22:24:52.664Z,6.97
2022-12-04T22:27:20.164Z,7.08
2022-12-04T22:29:50.622Z,6.87
2022-12-04T22:32:19.382Z,6.75
2022-12-04T22:34:49.974Z,6.42
2022-12-04T22:37:17.734Z,6.70
2022-12-04T22:39:45.169Z,6.77
2022-12-04T22:42:12.689Z,7.08
2022-12-04T22:44:40.232Z,6.87
2022-12-04T22:47:07.810Z,6.45
2022-12-04T22:49:35.449Z,6.80
2022-12-04T22:52:03.048Z,7.06
2022-12-04T22:54:30.638Z,6.33
2022-12-04T22:56:58.124Z,6.29
2022-12-04T22:59:25.638Z,6.45
2022-12-04T23:01:53.283Z,6.75
2022-12-04T23:04:20.896Z,7.16
2022-12-04T23:06:48.362Z,6.32
2022-12-04T23:09:17.630Z,6.56
2022-12-04T23:11:45.978Z,6.80
2022-12-04T23:14:15.436Z,6.80
2022-12-04T23:16:43.244Z,6.91
2022-12-04T23:19:15.923Z,6.80
2022-12-04T23:21:44.469Z,6.94
2022-12-04T23:24:12.992Z,6.56
2022-12-04T23:26:43.786Z,6.40
2022-12-04T23:29:36.894Z,6.28
2022-12-04T23:31:59.324Z,6.08
2022-12-04T23:34:26.875Z,6.39
2022-12-04T23:36:54.427Z,6.79
2022-12-04T23:39:22.067Z,6.38
2022-12-04T23:41:49.673Z,6.62
2022-12-04T23:44:17.157Z,6.60
2022-12-04T23:46:44.650Z,6.52
2022-12-04T23:49:12.192Z,6.54
2022-12-04T23:51:39.750Z,6.50
2022-12-04T23:54:07.240Z,6.33
2022-12-04T23:56:34.773Z,5.98
2022-12-04T23:59:03.599Z,6.39
